Nearby METAR Reports

 

KSJC - San Jose, California, USA
Distance from station: NE 14km
Updated: 2017-09-20 13:53
Mostly cloudy
Mostly cloudy
 Wind from NNW
Wind: NNW 13 km/h
Temperature: 24°C
Dew Point: 14°C
Humidity: 54%
Barometer: 1012.5 hPa
Clouds: Mostly cloudy
Visibility: 16 km
Cloud details: Few Clouds 305 m
Partly cloudy 975 m
Mostly cloudy 1433 m
2017/09/20 20:53 KSJC 202053Z 33007KT 10SM FEW010 SCT032 BKN047 24/14 A2990 RMK AO2 SLP124 T02390144 58020
KNUQ - Moffett Nas/Mtn, California, USA
Distance from station: N 14km
Updated: 2017-09-20 13:56
Partly cloudy
Partly cloudy
 Wind from N
Wind: N 9 km/h
Temperature: 22°C
Dew Point: 16°C
Humidity: 69%
Barometer: 1012.9 hPa
Clouds: Partly cloudy
Visibility: 16 km
Cloud details: Partly cloudy 1067 m
2017/09/20 20:56 KNUQ 202056Z 36005KT 10SM SCT035 22/16 A2991 RMK AO2 SLP130 60000 T02170161 58018
 
KPAO - Palo Alto, California, USA
Distance from station: NNW 23km
Updated: 2017-09-20 13:47
Mostly cloudy
Mostly cloudy
 Wind from W
Wind: W 20 km/h
Temperature: 24°C
Dew Point: 15°C
Humidity: 57%
Barometer: 1012.5 hPa
Clouds: Mostly cloudy
Visibility: 16 km
Cloud details: Mostly cloudy 853 m
2017/09/20 20:47 KPAO 202047Z 28011KT 10SM BKN028 24/15 A2990
KRHV - San Jose/Reid, California, USA
Distance from station: ENE 19km
Updated: 2017-09-20 13:50
Mostly cloudy
Mostly cloudy
 Wind from N
Wind: N 15 km/h
Temperature: 24°C
Dew Point: 14°C
Humidity: 54%
Barometer: 1013.2 hPa
Clouds: Mostly cloudy
Visibility: 16 km
Cloud details: Few Clouds 762 m
Mostly cloudy 1372 m
2017/09/20 20:50 KRHV 202050Z 35008KT 10SM FEW025 BKN045 24/14 A2992
 
KOAK - Oakland, California, USA
Distance from station: NNW 50km
Updated: 2017-09-20 13:53
Mostly cloudy
Mostly cloudy
 Wind from W
Wind: W 30 km/h
Temperature: 21°C
Dew Point: 17°C
Humidity: 78%
Barometer: 1012.5 hPa
Clouds: Mostly cloudy
Visibility: 16 km
Cloud details: Mostly cloudy 1676 m
2017/09/20 20:53 KOAK 202053Z 26016KT 10SM BKN055 21/17 A2990 RMK AO2 DZB26E36 SLP126 P0000 60000 T02060167 58016
KSQL - San Carlos Airpo, California, USA
Distance from station: NW 34km
Updated: 2017-09-20 13:47
Mostly cloudy
Mostly cloudy
 Wind from WSW
Wind: WSW 20 km/h
Temperature: 22°C
Dew Point: 15°C
Humidity: 65%
Barometer: 1013.2 hPa
Clouds: Mostly cloudy
Visibility: 16 km
Cloud details: Mostly cloudy 762 m
Mostly cloudy 1006 m
2017/09/20 20:47 KSQL 202047Z 24011KT 10SM BKN025 BKN033 22/15 A2992
 
KSFO - San Francisco, California, USA
Distance from station: NW 49km
Updated: 2017-09-20 14:36
Mostly cloudy
Mostly cloudy
 Wind from WSW
Wind: WSW 19 km/h
Temperature: 21°C
Dew Point: 15°C
Humidity: 69%
Barometer: 1012.5 hPa
Clouds: Mostly cloudy
Visibility: 16 km
Cloud details: Few Clouds 335 m
Partly cloudy 853 m
Mostly cloudy 1676 m
2017/09/20 21:36 KSFO 202136Z 24010KT 10SM FEW011 SCT028 BKN055 21/15 A2990 RMK AO2 T02060150
KE16 - San Martin, California, USA
Distance from station: ESE 43km
Updated: 2017-09-20 14:35
Mostly cloudy
Mostly cloudy
 Wind from NW
Wind: NW 6 km/h
Temperature: 23°C
Dew Point: 13°C
Humidity: 53%
Barometer: 1012.2 hPa
Clouds: Mostly cloudy
Visibility: 16 km
Cloud details: Mostly cloudy 1341 m
Mostly cloudy 1524 m
2017/09/20 21:35 KE16 202135Z AUTO 32003KT 10SM BKN044 BKN050 23/13 A2989 RMK AO2
 
KWVI - Watsonville, California, USA
Distance from station: SSE 44km
Updated: 2017-09-20 14:03
Mostly cloudy
Mostly cloudy
 Wind from SSW
Wind: SSW 15 km/h
Temperature: 20°C
Dew Point: 17°C
Humidity: 83%
Barometer: 1013.2 hPa
Clouds: Mostly cloudy
Visibility: 16 km
Cloud details: Mostly cloudy 244 m
2017/09/20 21:03 KWVI 202103Z AUTO 21008KT 10SM BKN008 20/17 A2992 RMK AO2 T02000167
KHAF - Half Moon Bay, California, USA
Distance from station: WNW 50km
Updated: 2017-09-20 14:35
Mist, Mostly cloudy
Mist, Mostly cloudy
 Wind from WSW
Wind: WSW 9 km/h
Temperature: 18°C
Barometer: 1012.2 hPa
Summary: Mist
Clouds: Mostly cloudy
Visibility: 5 km
Cloud details: Mostly cloudy 122 m
Mostly cloudy 1463 m
2017/09/20 21:35 KHAF 202135Z AUTO 25005KT 3SM BR BKN004 BKN048 18/ A2989 RMK AO2
 
KHWD - Hayward, California, USA
Distance from station: N 44km
Updated: 2017-09-20 13:54
Mostly cloudy
Mostly cloudy
 Wind from W
Wind: W 22 km/h
Temperature: 21°C
Dew Point: 14°C
Humidity: 64%
Barometer: 1012.9 hPa
Clouds: Mostly cloudy
Visibility: 16 km
Cloud details: Mostly cloudy 671 m
2017/09/20 20:54 KHWD 202054Z 28012KT 10SM BKN022 21/14 A2991 RMK AO2 SLP136 T02110144 58016
KLVK - Livermore, California, USA
Distance from station: NNE 51km
Updated: 2017-09-20 14:36
Overcast
Overcast
 Wind from WSW
Wind: WSW 24 km/h
Temperature: 22°C
Dew Point: 14°C
Humidity: 61%
Barometer: 1011.9 hPa
Clouds: Overcast
Visibility: 16 km
Cloud details: Partly cloudy 823 m
Overcast 1097 m
2017/09/20 21:36 KLVK 202136Z 24013KT 10SM SCT027 OVC036 22/14 A2988 RMK AO2 T02170144